Time;durP1;ratioP1;P1;durP2;ratioP2;P2;SDS_P1;SDS_P2;PMS_P1;PMS_P2;Temp;Humidity;BMP_temperature;BMP_pressure;BME280_temperature;BME280_humidity;BME280_pressure;Samples;Min_cycle;Max_cycle;Signal;HPM_P1;HPM_P2
2022/07/22 00:02:18;;;;;;;11.88;5.80;;;;;;;14.97;100.00;102141.28;5096603;28;20643;-72
2022/07/22 00:04:43;;;;;;;13.65;5.82;;;;;;;15.02;100.00;102140.34;5095016;28;20035;-73
2022/07/22 00:07:08;;;;;;;13.13;5.78;;;;;;;15.03;100.00;102140.31;5108945;28;20398;-73
2022/07/22 00:09:34;;;;;;;10.32;6.30;;;;;;;15.01;100.00;102136.88;5103184;28;20386;-73
2022/07/22 00:11:59;;;;;;;11.35;6.57;;;;;;;14.95;100.00;102134.38;5101463;28;20028;-73
2022/07/22 00:14:25;;;;;;;13.05;5.70;;;;;;;14.91;100.00;102141.44;5097815;28;20425;-73
2022/07/22 00:16:50;;;;;;;9.35;5.38;;;;;;;14.91;100.00;102137.91;5104083;28;20031;-73
2022/07/22 00:19:15;;;;;;;19.27;6.03;;;;;;;14.87;100.00;102131.00;5092585;28;20027;-73
2022/07/22 00:21:41;;;;;;;8.98;5.72;;;;;;;14.91;100.00;102127.41;5089986;28;20036;-73
2022/07/22 00:24:06;;;;;;;9.10;5.75;;;;;;;14.92;100.00;102134.41;5106207;28;20100;-73
2022/07/22 00:26:32;;;;;;;11.75;6.30;;;;;;;14.89;100.00;102130.09;5095199;28;20062;-73
2022/07/22 00:28:57;;;;;;;9.57;6.15;;;;;;;14.90;100.00;102130.94;5096841;28;20097;-73
2022/07/22 00:31:22;;;;;;;14.45;6.78;;;;;;;14.95;100.00;102134.38;5101309;28;20272;-73
2022/07/22 00:33:48;;;;;;;16.17;6.30;;;;;;;14.94;100.00;102140.47;5107021;28;20110;-72
2022/07/22 00:36:13;;;;;;;10.52;6.45;;;;;;;14.88;100.00;102138.03;5107762;28;20386;-73
2022/07/22 00:38:39;;;;;;;11.60;6.18;;;;;;;14.90;100.00;102133.59;5094246;28;20039;-73
2022/07/22 00:41:04;;;;;;;14.13;6.82;;;;;;;14.93;100.00;102128.25;5098948;28;20020;-73
2022/07/22 00:44:00;;;;;;;17.02;8.30;;;;;;;15.00;100.00;102132.47;5103459;28;20027;-72
2022/07/22 00:46:26;;;;;;;15.30;6.25;;;;;;;14.99;100.00;102125.50;5099207;28;20068;-73
2022/07/22 00:48:52;;;;;;;14.23;6.65;;;;;;;15.00;100.00;102127.22;5099275;28;20111;-72
2022/07/22 00:51:19;;;;;;;14.15;7.07;;;;;;;15.04;100.00;102134.16;5092769;28;20471;-72
2022/07/22 00:53:46;;;;;;;16.25;6.88;;;;;;;15.01;100.00;102126.34;5100940;28;20032;-73
2022/07/22 00:56:11;;;;;;;19.33;6.93;;;;;;;14.99;100.00;102115.00;5107169;28;20032;-73
2022/07/22 00:58:36;;;;;;;13.75;6.65;;;;;;;14.94;100.00;102127.34;5111666;28;20381;-72
2022/07/22 01:01:03;;;;;;;13.88;7.03;;;;;;;14.92;100.00;102121.28;5099940;28;20028;-73
2022/07/22 01:03:28;;;;;;;12.73;6.88;;;;;;;14.92;100.00;102118.66;5106990;28;20028;-72
2022/07/22 01:05:54;;;;;;;13.88;7.32;;;;;;;14.93;100.00;102115.13;5091980;28;20399;-72
2022/07/22 01:08:19;;;;;;;18.20;7.32;;;;;;;14.90;100.00;102112.56;5089048;28;20047;-72
2022/07/22 01:10:44;;;;;;;16.75;7.03;;;;;;;14.85;100.00;102117.94;5089223;28;20428;-72
2022/07/22 01:13:10;;;;;;;17.27;6.95;;;;;;;14.86;100.00;102113.53;5094266;28;20496;-72
2022/07/22 01:15:36;;;;;;;11.30;6.25;;;;;;;14.85;100.00;102117.06;5107161;28;20016;-73
2022/07/22 01:18:01;;;;;;;11.10;6.30;;;;;;;14.77;100.00;102111.97;5096197;28;20490;-72
2022/07/22 01:20:27;;;;;;;16.33;6.20;;;;;;;14.75;100.00;102116.41;5098470;28;20038;-72
2022/07/22 01:22:52;;;;;;;13.55;5.97;;;;;;;14.71;100.00;102112.97;5108121;28;20024;-72
2022/07/22 01:25:17;;;;;;;13.18;6.68;;;;;;;14.71;100.00;102112.09;5089948;28;20016;-73
2022/07/22 01:27:43;;;;;;;13.45;6.30;;;;;;;14.70;100.00;102105.97;5096738;28;20399;-72
2022/07/22 01:30:09;;;;;;;12.45;6.82;;;;;;;14.69;100.00;102109.50;5101692;28;20043;-73
2022/07/22 01:32:34;;;;;;;10.32;6.70;;;;;;;14.65;100.00;102120.97;5111109;27;20111;-72
2022/07/22 01:34:59;;;;;;;17.67;6.00;;;;;;;14.55;100.00;102111.56;5090718;28;20024;-72
2022/07/22 01:37:25;;;;;;;11.75;6.55;;;;;;;14.43;100.00;102114.38;5088177;28;20024;-72
2022/07/22 01:39:50;;;;;;;15.50;6.80;;;;;;;14.31;100.00;102112.84;5089976;28;20032;-72
2022/07/22 01:42:15;;;;;;;11.93;6.47;;;;;;;14.20;100.00;102112.19;5091225;28;20028;-72
2022/07/22 01:44:41;;;;;;;10.98;6.00;;;;;;;14.08;100.00;102107.16;5090141;28;20479;-72
2022/07/22 01:47:07;;;;;;;10.45;5.80;;;;;;;13.97;100.00;102107.34;5090124;28;20064;-72
2022/07/22 01:49:34;;;;;;;12.50;6.47;;;;;;;13.89;100.00;102104.84;5092058;28;20353;-72
2022/07/22 01:52:00;;;;;;;12.27;6.30;;;;;;;13.80;100.00;102107.66;5089666;28;20479;-72
2022/07/22 01:54:25;;;;;;;13.40;7.15;;;;;;;13.76;100.00;102113.81;5089232;28;20447;-73
2022/07/22 01:56:51;;;;;;;12.40;6.05;;;;;;;13.70;100.00;102121.75;5090221;28;20127;-72
2022/07/22 01:59:16;;;;;;;13.75;6.78;;;;;;;13.71;100.00;102123.53;5090535;28;20119;-72
2022/07/22 02:01:41;;;;;;;15.32;7.43;;;;;;;13.73;100.00;102116.47;5090684;28;20016;-72
2022/07/22 02:04:07;;;;;;;12.35;7.10;;;;;;;13.75;100.00;102114.72;5091074;28;20036;-72
2022/07/22 02:06:32;;;;;;;13.77;6.93;;;;;;;13.74;100.00;102108.59;5091360;28;20024;-72
2022/07/22 02:08:58;;;;;;;13.73;7.80;;;;;;;13.73;100.00;102112.13;5090701;28;20034;-72
2022/07/22 02:11:24;;;;;;;18.55;7.30;;;;;;;13.72;100.00;102115.63;5089865;28;20058;-73
2022/07/22 02:13:49;;;;;;;18.13;7.85;;;;;;;13.76;100.00;102106.81;5090239;28;20566;-72
2022/07/22 02:16:14;;;;;;;17.30;7.40;;;;;;;13.78;100.00;102107.66;5090787;28;20035;-72
2022/07/22 02:18:39;;;;;;;11.93;7.72;;;;;;;13.85;100.00;102099.69;5089071;28;20039;-72
2022/07/22 02:21:05;;;;;;;14.35;7.97;;;;;;;13.86;100.00;102098.78;5089848;28;20032;-72
2022/07/22 02:23:30;;;;;;;16.45;7.53;;;;;;;13.92;100.00;102101.31;5087660;28;20029;-72
2022/07/22 02:25:55;;;;;;;16.30;7.35;;;;;;;13.92;100.00;102096.94;5088889;28;20020;-73
2022/07/22 02:28:21;;;;;;;17.48;8.07;;;;;;;13.97;100.00;102108.22;5087653;28;20409;-72
2022/07/22 02:30:46;;;;;;;20.35;8.10;;;;;;;13.99;100.00;102105.56;5091239;28;20024;-73
2022/07/22 02:33:11;;;;;;;16.70;7.93;;;;;;;14.04;100.00;102101.97;5090138;28;20107;-73
2022/07/22 02:35:37;;;;;;;19.02;8.27;;;;;;;14.07;100.00;102106.31;5090799;28;20081;-72
2022/07/22 02:38:04;;;;;;;15.10;7.72;;;;;;;14.10;100.00;102102.75;5090613;28;20064;-72
2022/07/22 02:40:29;;;;;;;14.80;7.53;;;;;;;14.11;100.00;102101.84;5088326;28;20496;-72
2022/07/22 02:42:55;;;;;;;19.25;8.45;;;;;;;14.11;100.00;102105.34;5088760;28;20032;-73
2022/07/22 02:45:20;;;;;;;17.52;7.85;;;;;;;14.20;100.00;102109.56;5090482;28;20020;-73
2022/07/22 02:47:54;;;;;;;15.98;7.93;;;;;;;14.14;100.00;102100.03;5089482;28;20463;-73
2022/07/22 02:50:19;;;;;;;;;;;;;;;14.20;100.00;102097.31;5090883;28;20042;-73
2022/07/22 02:52:45;;;;;;;13.88;7.07;;;;;;;14.17;100.00;102094.75;5089969;27;19924;-72
2022/07/22 02:55:10;;;;;;;17.77;9.02;;;;;;;14.17;100.00;102091.25;5088123;28;20044;-72
2022/07/22 02:57:36;;;;;;;21.48;8.15;;;;;;;14.18;100.00;102087.75;5090282;28;20051;-73
2022/07/22 03:00:02;;;;;;;19.73;8.77;;;;;;;14.22;100.00;102092.91;5089937;28;20074;-73
2022/07/22 03:02:27;;;;;;;15.27;8.65;;;;;;;14.23;100.00;102081.53;5089680;28;20137;-72
2022/07/22 03:04:53;;;;;;;19.80;8.82;;;;;;;14.25;100.00;102084.09;5089648;28;20028;-73
2022/07/22 03:07:18;;;;;;;13.60;8.00;;;;;;;14.23;100.00;102071.03;5090648;28;20036;-72
2022/07/22 03:09:45;;;;;;;16.23;7.63;;;;;;;14.23;100.00;102076.28;5088906;28;20096;-72
2022/07/22 03:12:10;;;;;;;16.80;7.65;;;;;;;14.23;100.00;102081.53;5090052;28;20455;-72
2022/07/22 03:14:35;;;;;;;17.38;7.80;;;;;;;14.21;100.00;102080.66;5090389;28;20526;-72
2022/07/22 03:17:01;;;;;;;14.55;7.47;;;;;;;14.25;100.00;102079.72;5089790;28;20024;-73
2022/07/22 03:19:26;;;;;;;18.92;8.05;;;;;;;14.24;100.00;102078.00;5088551;28;20395;-72
2022/07/22 03:21:51;;;;;;;16.38;8.50;;;;;;;14.22;100.00;102084.16;5089962;28;20032;-73
2022/07/22 03:24:16;;;;;;;13.40;8.25;;;;;;;14.24;100.00;102080.63;5088525;28;20475;-73
2022/07/22 03:26:42;;;;;;;17.60;8.60;;;;;;;14.25;100.00;102079.72;5089248;28;20024;-72
2022/07/22 03:29:07;;;;;;;14.52;8.35;;;;;;;14.22;100.00;102077.19;5090175;28;20040;-72
2022/07/22 03:31:33;;;;;;;16.08;7.85;;;;;;;14.19;100.00;102082.47;5089838;28;20150;-73
2022/07/22 03:34:00;;;;;;;17.40;8.68;;;;;;;14.18;100.00;102072.84;5090274;28;20028;-72
2022/07/22 03:36:26;;;;;;;14.93;8.75;;;;;;;14.19;100.00;102076.34;5090008;28;20027;-73
2022/07/22 03:38:51;;;;;;;20.45;8.57;;;;;;;14.15;100.00;102075.53;5088321;28;20051;-72
2022/07/22 03:41:16;;;;;;;17.92;8.30;;;;;;;14.14;100.00;102081.69;5091144;28;20024;-72
2022/07/22 03:43:42;;;;;;;17.58;8.27;;;;;;;14.11;100.00;102080.88;5090986;28;20016;-72
2022/07/22 03:46:07;;;;;;;17.75;8.10;;;;;;;14.11;100.00;102086.97;5093256;28;20372;-72
2022/07/22 03:48:32;;;;;;;14.80;7.88;;;;;;;14.07;100.00;102080.06;5093277;28;20024;-73
2022/07/22 03:50:58;;;;;;;18.85;8.32;;;;;;;14.10;100.00;102092.28;5091795;28;20020;-72
2022/07/22 03:53:23;;;;;;;16.48;8.20;;;;;;;14.09;100.00;102090.53;5091471;28;20391;-72
2022/07/22 03:55:48;;;;;;;17.88;8.30;;;;;;;14.07;100.00;102085.31;5091944;28;20048;-72
2022/07/22 03:58:17;;;;;;;11.50;7.00;;;;;;;14.09;100.00;102094.00;5092720;28;20028;-72
2022/07/22 04:00:42;;;;;;;15.80;8.27;;;;;;;14.10;100.00;102090.50;5092971;28;20085;-72
2022/07/22 04:03:07;;;;;;;18.63;8.25;;;;;;;14.15;100.00;102091.28;5093034;28;20024;-72
2022/07/22 04:05:32;;;;;;;18.58;8.27;;;;;;;14.16;100.00;102095.66;5093108;28;20391;-72
2022/07/22 04:07:58;;;;;;;15.43;8.30;;;;;;;14.16;100.00;102100.91;5093060;28;20085;-72
2022/07/22 04:10:23;;;;;;;15.98;8.23;;;;;;;14.19;100.00;102099.94;5090348;28;20035;-72
2022/07/22 04:12:48;;;;;;;14.93;8.00;;;;;;;14.19;100.00;102094.69;5091957;28;20035;-72
2022/07/22 04:15:13;;;;;;;20.00;8.52;;;;;;;14.21;100.00;102095.56;5093659;28;20023;-72
2022/07/22 04:17:39;;;;;;;20.27;8.32;;;;;;;14.27;100.00;102093.69;5090463;28;20028;-72
2022/07/22 04:20:05;;;;;;;15.95;8.85;;;;;;;14.33;100.00;102103.19;5091576;28;20031;-72
2022/07/22 04:22:31;;;;;;;17.17;8.15;;;;;;;14.34;100.00;102098.81;5093160;28;20056;-72
2022/07/22 04:24:56;;;;;;;16.17;8.60;;;;;;;14.36;100.00;102099.66;5094887;28;20548;-72
2022/07/22 04:27:21;;;;;;;16.52;8.73;;;;;;;14.40;100.00;102101.31;5098633;28;20020;-72
2022/07/22 04:29:46;;;;;;;19.98;9.00;;;;;;;14.38;100.00;102097.84;5106603;28;20038;-72
2022/07/22 04:32:12;;;;;;;16.90;9.10;;;;;;;14.42;100.00;102100.41;5104629;28;20024;-72
2022/07/22 04:34:37;;;;;;;18.52;9.05;;;;;;;14.45;100.00;102096.81;5103722;28;20081;-72
2022/07/22 04:37:02;;;;;;;22.63;9.35;;;;;;;14.49;100.00;102098.53;5098256;28;20374;-72
2022/07/22 04:39:28;;;;;;;15.38;8.90;;;;;;;14.53;100.00;102100.22;5098297;28;20120;-72
2022/07/22 04:41:53;;;;;;;18.98;9.32;;;;;;;14.55;100.00;102084.44;5089526;28;20039;-72
2022/07/22 04:44:18;;;;;;;17.52;9.02;;;;;;;14.58;100.00;102085.22;5092258;28;20114;-72
2022/07/22 04:46:44;;;;;;;15.13;9.13;;;;;;;14.60;100.00;102090.47;5093148;28;20036;-72
2022/07/22 04:49:09;;;;;;;15.43;9.32;;;;;;;14.70;100.00;102090.22;5091482;28;20028;-72
2022/07/22 04:51:34;;;;;;;16.52;9.43;;;;;;;14.73;100.00;102087.53;5092347;28;20028;-72
2022/07/22 04:54:00;;;;;;;11.75;8.35;;;;;;;14.74;100.00;102086.63;5087371;28;20554;-72
2022/07/22 04:56:25;;;;;;;21.70;9.48;;;;;;;14.74;100.00;102084.00;5090406;28;20052;-72
2022/07/22 04:58:51;;;;;;;17.92;9.18;;;;;;;14.72;100.00;102080.56;5091678;28;20085;-72
2022/07/22 05:01:16;;;;;;;15.98;8.93;;;;;;;14.72;100.00;102085.81;5092026;28;20024;-72
2022/07/22 05:03:41;;;;;;;17.35;9.15;;;;;;;14.75;100.00;102085.75;5092208;28;20052;-72
2022/07/22 05:06:07;;;;;;;18.08;9.93;;;;;;;14.81;100.00;102084.75;5092541;28;20055;-72
2022/07/22 05:08:33;;;;;;;19.17;9.35;;;;;;;14.81;100.00;102083.88;5090986;28;20020;-72
2022/07/22 05:10:58;;;;;;;16.50;9.85;;;;;;;14.81;100.00;102078.63;5091658;28;20123;-72
2022/07/22 05:13:24;;;;;;;21.02;9.32;;;;;;;14.83;100.00;102082.09;5090510;28;20051;-72
2022/07/22 05:15:49;;;;;;;17.38;9.65;;;;;;;14.88;100.00;102069.75;5090356;28;20028;-72
2022/07/22 05:18:14;;;;;;;24.27;10.45;;;;;;;14.98;100.00;102077.38;5090495;28;20036;-72
2022/07/22 05:20:40;;;;;;;19.90;10.00;;;;;;;15.07;100.00;102076.28;5088015;28;20025;-72
2022/07/22 05:23:05;;;;;;;21.35;10.88;;;;;;;15.09;100.00;102068.41;5090642;28;20020;-72
2022/07/22 05:25:30;;;;;;;19.15;10.57;;;;;;;15.01;100.00;102080.81;5092242;28;20485;-72
2022/07/22 05:27:56;;;;;;;23.20;11.07;;;;;;;14.94;100.00;102073.09;5088029;28;20363;-72
2022/07/22 05:30:21;;;;;;;18.77;10.95;;;;;;;14.93;100.00;102078.38;5088811;28;20039;-72
2022/07/22 05:32:47;;;;;;;18.52;10.85;;;;;;;14.94;100.00;102066.97;5091566;28;20071;-72
2022/07/22 05:35:12;;;;;;;18.02;11.25;;;;;;;14.87;100.00;102078.50;5090212;28;20074;-72
2022/07/22 05:37:37;;;;;;;22.25;10.25;;;;;;;14.84;100.00;102068.94;5090248;28;20036;-72
2022/07/22 05:40:03;;;;;;;23.02;11.68;;;;;;;14.83;100.00;102079.47;5091460;28;20040;-72
2022/07/22 05:42:29;;;;;;;28.42;11.52;;;;;;;14.83;100.00;102082.09;5090436;28;20071;-72
2022/07/22 05:44:54;;;;;;;18.15;10.13;;;;;;;14.82;100.00;102081.25;5090140;28;20525;-72
2022/07/22 05:47:19;;;;;;;18.02;10.75;;;;;;;14.85;100.00;102082.94;5087889;28;20032;-72
2022/07/22 05:49:44;;;;;;;18.63;10.45;;;;;;;14.92;100.00;102079.28;5091918;28;20065;-72
2022/07/22 05:52:10;;;;;;;22.27;10.80;;;;;;;15.03;100.00;102084.28;5092485;28;20024;-72
2022/07/22 05:54:35;;;;;;;18.48;9.90;;;;;;;15.07;100.00;102084.19;5091360;28;20036;-72
2022/07/22 05:57:00;;;;;;;21.58;10.63;;;;;;;15.18;100.00;102079.56;5086642;28;20497;-72
2022/07/22 05:59:26;;;;;;;19.58;10.30;;;;;;;15.34;100.00;102081.84;5088683;28;20035;-72
2022/07/22 06:01:51;;;;;;;22.55;10.57;;;;;;;15.52;100.00;102081.38;5091524;28;20440;-72
2022/07/22 06:04:17;;;;;;;21.73;10.40;;;;;;;15.63;100.00;102079.38;5090776;28;20032;-72
2022/07/22 06:06:42;;;;;;;19.42;10.32;;;;;;;15.72;100.00;102074.78;5091297;28;20020;-72
2022/07/22 06:09:07;;;;;;;19.52;9.50;;;;;;;15.86;100.00;102084.06;5089304;28;20028;-73
2022/07/22 06:11:33;;;;;;;13.95;8.68;;;;;;;16.03;100.00;102082.78;5090415;28;20028;-72
2022/07/22 06:13:58;;;;;;;18.90;9.20;;;;;;;16.19;100.00;102086.72;5089334;28;20039;-72
2022/07/22 06:16:23;;;;;;;16.30;8.68;;;;;;;16.32;100.00;102092.50;5089883;28;20463;-72
2022/07/22 06:18:48;;;;;;;22.10;8.48;;;;;;;16.44;100.00;102091.28;5090163;28;20056;-72
2022/07/22 06:21:14;;;;;;;17.40;7.50;;;;;;;16.50;100.00;102083.22;5089501;28;20387;-73
2022/07/22 06:23:39;;;;;;;15.80;7.10;;;;;;;16.54;100.00;102076.97;5090190;28;20032;-72
2022/07/22 06:26:04;;;;;;;14.73;7.53;;;;;;;16.61;100.00;102079.38;5087272;28;20390;-72
2022/07/22 06:28:30;;;;;;;19.10;7.63;;;;;;;16.71;100.00;102073.81;5088358;28;20020;-72
2022/07/22 06:30:55;;;;;;;11.73;5.90;;;;;;;16.77;100.00;102086.84;5089550;28;20024;-72
2022/07/22 06:33:21;;;;;;;8.65;5.38;;;;;;;16.73;100.00;102079.94;5089950;28;20471;-72
2022/07/22 06:35:46;;;;;;;11.85;5.72;;;;;;;16.74;100.00;102072.00;5085945;28;20119;-72
2022/07/22 06:38:11;;;;;;;10.25;5.57;;;;;;;16.72;100.00;102076.44;5084792;28;20035;-72
2022/07/22 06:40:36;;;;;;;12.27;5.43;;;;;;;16.67;100.00;102074.84;5088425;28;20024;-72
2022/07/22 06:43:03;;;;;;;12.02;4.82;;;;;;;16.67;100.00;102075.69;5089574;28;20036;-72
2022/07/22 06:45:28;;;;;;;9.23;5.75;;;;;;;16.72;100.00;102078.22;5091263;28;20096;-73
2022/07/22 06:47:53;;;;;;;11.00;5.50;;;;;;;16.79;100.00;102070.09;5090415;28;20077;-72
2022/07/22 06:50:19;;;;;;;6.45;2.80;;;;;;;16.79;100.00;102077.16;5091145;28;20494;-72
2022/07/22 06:52:44;;;;;;;5.72;3.13;;;;;;;16.89;97.43;102075.97;5088475;28;20063;-72
2022/07/22 06:55:10;;;;;;;3.72;2.13;;;;;;;17.03;94.63;102078.16;5090552;28;20044;-72
2022/07/22 06:57:35;;;;;;;5.43;3.08;;;;;;;17.09;88.03;102073.56;5089904;28;20028;-75
2022/07/22 07:00:07;;;;;;;5.68;3.15;;;;;;;17.25;91.22;102075.72;5088616;28;20060;-75
2022/07/22 07:02:32;;;;;;;6.03;3.40;;;;;;;17.44;91.44;102076.88;5089405;28;20038;-75
2022/07/22 07:04:57;;;;;;;7.40;3.92;;;;;;;17.70;94.55;102068.09;5090933;28;20450;-75
2022/07/22 07:07:23;;;;;;;6.85;3.33;;;;;;;17.76;92.79;102065.28;5090472;28;20024;-75
2022/07/22 07:09:48;;;;;;;9.32;3.75;;;;;;;17.78;95.32;102073.13;5089787;28;20502;-76
2022/07/22 07:12:13;;;;;;;6.38;2.60;;;;;;;17.84;85.20;102067.66;5090851;28;20028;-76
2022/07/22 07:14:38;;;;;;;6.50;2.42;;;;;;;17.94;89.03;102055.00;5088434;28;20032;-75
2022/07/22 07:17:04;;;;;;;4.50;1.85;;;;;;;17.98;81.80;102061.88;5093595;28;20032;-76
2022/07/22 07:19:29;;;;;;;5.97;2.08;;;;;;;18.01;86.58;102064.41;5093493;28;20024;-76
2022/07/22 07:21:54;;;;;;;5.65;2.20;;;;;;;17.86;83.56;102054.41;5093377;28;20399;-76
2022/07/22 07:24:19;;;;;;;7.22;2.42;;;;;;;17.94;89.05;102055.00;5094775;28;20020;-76
2022/07/22 07:26:45;;;;;;;4.25;1.95;;;;;;;18.00;83.39;102053.00;5094657;28;21378;-75
2022/07/22 07:29:10;;;;;;;3.35;1.70;;;;;;;18.18;82.42;102053.25;5094332;28;20027;-76
2022/07/22 07:31:35;;;;;;;3.05;1.73;;;;;;;18.37;84.12;102064.88;5092828;28;20032;-76
2022/07/22 07:34:01;;;;;;;4.13;1.40;;;;;;;18.59;79.94;102069.38;5092678;28;20360;-75
2022/07/22 07:36:26;;;;;;;5.35;1.90;;;;;;;18.67;80.21;102064.63;5082702;28;20025;-76
2022/07/22 07:38:51;;;;;;;5.35;1.80;;;;;;;18.60;78.94;102066.66;5091594;28;20066;-76
2022/07/22 07:41:17;;;;;;;4.40;1.80;;;;;;;18.56;78.31;102059.78;5092414;28;20387;-76
2022/07/22 07:43:43;;;;;;;4.22;2.15;;;;;;;18.57;79.54;102053.56;5089846;28;20379;-73
2022/07/22 07:46:08;;;;;;;2.70;1.65;;;;;;;18.59;81.59;102048.25;5088070;28;20024;-73
2022/07/22 07:48:33;;;;;;;3.10;1.90;;;;;;;18.85;78.85;102050.78;5093934;28;20459;-73
2022/07/22 07:50:59;;;;;;;2.97;1.85;;;;;;;19.08;75.52;102055.16;5093043;28;20106;-73
2022/07/22 07:53:24;;;;;;;6.25;2.05;;;;;;;19.38;76.82;102058.31;5093527;28;20479;-73
2022/07/22 07:55:50;;;;;;;5.57;1.75;;;;;;;19.52;74.17;102057.78;5093418;28;20048;-73
2022/07/22 07:58:15;;;;;;;3.25;1.85;;;;;;;19.56;73.03;102053.22;5093819;28;20028;-73
2022/07/22 08:00:42;;;;;;;6.88;1.95;;;;;;;19.46;71.41;102050.09;5094035;28;20430;-73
2022/07/22 08:03:08;;;;;;;7.60;2.22;;;;;;;19.40;67.54;102053.00;5093928;28;20043;-73
2022/07/22 08:05:33;;;;;;;3.83;1.88;;;;;;;19.48;69.91;102048.22;5093619;28;20043;-73
2022/07/22 08:07:59;;;;;;;4.43;2.55;;;;;;;19.41;72.19;102058.19;5093660;28;20028;-73
2022/07/22 08:10:26;;;;;;;4.88;2.42;;;;;;;19.37;74.95;102038.09;5094148;28;20491;-73
2022/07/22 08:12:51;;;;;;;8.15;3.10;;;;;;;19.32;74.20;102055.06;5092979;28;20020;-73
2022/07/22 08:15:17;;;;;;;7.80;2.97;;;;;;;19.08;77.14;102052.50;5094027;28;20020;-73
2022/07/22 08:17:42;;;;;;;8.38;3.08;;;;;;;18.82;78.53;102050.88;5093782;28;20016;-73
2022/07/22 08:20:08;;;;;;;5.43;2.65;;;;;;;18.70;76.98;102048.69;5092654;28;20087;-73
2022/07/22 08:22:33;;;;;;;7.90;2.67;;;;;;;18.52;81.12;102054.69;5093974;28;20038;-73
2022/07/22 08:24:59;;;;;;;3.95;2.63;;;;;;;18.44;81.58;102058.47;5093216;28;20020;-73
2022/07/22 08:27:24;;;;;;;6.32;2.30;;;;;;;18.40;81.58;102059.47;5093582;28;20024;-73
2022/07/22 08:29:49;;;;;;;5.10;2.55;;;;;;;18.38;80.08;102055.19;5093421;28;20024;-73
2022/07/22 08:32:15;;;;;;;4.28;2.45;;;;;;;18.42;84.58;102060.28;5092983;28;20049;-73
2022/07/22 08:34:40;;;;;;;4.03;2.30;;;;;;;18.41;80.19;102055.94;5093279;28;20103;-73
2022/07/22 08:37:05;;;;;;;4.22;1.90;;;;;;;18.55;81.64;102051.94;5093058;28;20016;-73
2022/07/22 08:39:31;;;;;;;4.38;2.50;;;;;;;18.57;82.54;102048.28;5089360;28;20463;-72
2022/07/22 08:41:57;;;;;;;5.15;2.33;;;;;;;18.54;75.29;102043.16;5088548;28;20027;-73
2022/07/22 08:44:23;;;;;;;4.03;2.30;;;;;;;18.46;78.79;102042.56;5091753;28;20016;-73
2022/07/22 08:46:48;;;;;;;5.28;2.33;;;;;;;18.42;78.77;102044.47;5092668;28;20032;-73
2022/07/22 08:49:16;;;;;;;3.25;2.10;;;;;;;18.42;75.68;102039.19;5092842;28;20491;-72
2022/07/22 08:51:41;;;;;;;4.22;2.40;;;;;;;18.68;79.20;102043.47;5093088;28;20364;-72
2022/07/22 08:54:06;;;;;;;3.63;2.20;;;;;;;19.21;79.87;102037.03;5091267;28;20020;-72
2022/07/22 08:56:32;;;;;;;5.43;2.58;;;;;;;19.83;68.25;102032.69;5091346;28;20044;-73
2022/07/22 08:58:57;;;;;;;5.40;2.40;;;;;;;20.19;69.77;102024.91;5092967;28;20028;-73
2022/07/22 09:01:22;;;;;;;4.53;2.60;;;;;;;20.23;68.52;102029.13;5107103;28;20024;-72
2022/07/22 09:03:51;;;;;;;5.88;2.80;;;;;;;20.10;65.40;102035.91;5092209;28;20024;-72
2022/07/22 09:06:17;;;;;;;4.35;2.35;;;;;;;19.91;66.86;102041.13;5086389;28;20020;-72
2022/07/22 09:09:09;;;;;;;5.28;2.75;;;;;;;19.96;72.06;102047.09;5086772;28;20055;-73
2022/07/22 09:11:34;;;;;;;6.25;2.10;;;;;;;20.01;67.62;102041.59;5082612;28;20043;-72
2022/07/22 09:14:01;;;;;;;5.47;2.50;;;;;;;20.07;70.54;102039.53;5085544;28;20028;-72
2022/07/22 09:16:39;;;;;;;3.63;2.22;;;;;;;20.05;71.07;102040.56;5087933;28;20067;-72
2022/07/22 09:19:05;;;;;;;6.32;2.40;;;;;;;20.01;69.50;102034.53;5087854;28;20424;-72
2022/07/22 09:21:31;;;;;;;4.03;2.03;;;;;;;19.98;68.93;102039.09;5084912;28;20130;-72
2022/07/22 09:23:56;;;;;;;7.22;2.30;;;;;;;19.97;70.68;102042.66;5088444;28;20020;-72
2022/07/22 09:26:39;;;;;;;6.53;2.40;;;;;;;20.05;71.08;102038.78;5087254;28;20036;-72
2022/07/22 09:29:05;;;;;;;3.97;2.30;;;;;;;20.11;67.98;102027.06;5088578;28;20047;-72
2022/07/22 09:31:36;;;;;;;5.20;2.10;;;;;;;20.15;66.31;102020.69;5088722;28;20028;-72
2022/07/22 09:34:04;;;;;;;5.53;2.25;;;;;;;20.16;62.40;102027.69;5089083;28;20085;-72
2022/07/22 09:36:30;;;;;;;3.65;2.03;;;;;;;20.22;68.45;102027.41;5086470;28;20027;-72
2022/07/22 09:38:56;;;;;;;4.93;2.00;;;;;;;20.37;68.83;102025.84;5087865;28;20024;-72
2022/07/22 09:41:22;;;;;;;4.95;2.40;;;;;;;20.49;69.26;102017.34;5091830;28;20032;-72
2022/07/22 09:43:47;;;;;;;3.55;2.22;;;;;;;20.52;66.24;102014.59;5085840;28;20103;-72
2022/07/22 09:46:13;;;;;;;5.90;2.22;;;;;;;20.49;65.77;102011.19;5086248;28;20029;-72
2022/07/22 09:48:39;;;;;;;5.85;2.55;;;;;;;20.39;66.63;102012.56;5082800;28;20024;-72
2022/07/22 09:51:05;;;;;;;3.85;2.38;;;;;;;20.23;67.12;102015.03;5094520;28;20028;-72
2022/07/22 09:53:31;;;;;;;3.65;2.80;;;;;;;20.05;65.52;102014.09;5092102;28;20016;-72
2022/07/22 09:56:01;;;;;;;5.30;2.70;;;;;;;20.12;71.32;102018.19;5089268;28;20136;-72
2022/07/22 09:58:27;;;;;;;5.38;2.53;;;;;;;20.22;68.44;102015.97;5086083;28;20375;-72
2022/07/22 10:00:54;;;;;;;4.70;2.08;;;;;;;20.19;67.41;102016.97;5087912;28;20043;-72
2022/07/22 10:03:31;;;;;;;5.40;2.58;;;;;;;20.29;68.54;102014.75;5090359;28;20016;-72
2022/07/22 10:05:58;;;;;;;5.85;2.72;;;;;;;20.33;66.99;102011.03;5090221;28;20024;-72
2022/07/22 10:08:27;;;;;;;5.28;2.92;;;;;;;20.53;65.92;102023.38;5090543;28;20019;-72
2022/07/22 10:10:57;;;;;;;6.30;2.70;;;;;;;20.65;65.43;102022.81;5089975;28;20387;-72
2022/07/22 10:13:23;;;;;;;4.68;2.50;;;;;;;20.92;62.79;102025.94;5091489;28;20024;-72
2022/07/22 10:15:49;;;;;;;4.70;2.60;;;;;;;20.98;63.50;102017.69;5087639;28;20054;-72
2022/07/22 10:18:18;;;;;;;4.82;2.80;;;;;;;21.18;63.79;102008.75;5090825;28;20020;-72
2022/07/22 10:20:44;;;;;;;6.30;2.80;;;;;;;21.42;62.18;101996.13;5091229;28;20196;-72
2022/07/22 10:23:12;;;;;;;4.28;2.55;;;;;;;21.77;63.11;102005.84;5091046;28;20352;-72
2022/07/22 10:25:54;;;;;;;5.35;2.67;;;;;;;22.06;64.49;102015.78;5089534;28;20067;-72
2022/07/22 10:28:31;;;;;;;6.18;2.53;;;;;;;22.23;61.93;102011.41;5088292;28;20117;-73
2022/07/22 10:31:18;;;;;;;4.05;2.70;;;;;;;22.56;61.05;102016.66;5091030;28;20082;-72
2022/07/22 10:33:48;;;;;;;9.30;3.55;;;;;;;22.54;55.02;102014.09;5090216;28;20048;-72
2022/07/22 10:36:14;;;;;;;3.58;2.65;;;;;;;22.67;55.76;102015.13;5091296;28;20475;-72
2022/07/22 10:39:07;;;;;;;8.32;3.00;;;;;;;22.49;60.36;102017.94;5089651;28;20109;-72
2022/07/22 10:41:38;;;;;;;6.30;2.47;;;;;;;22.29;60.08;102021.69;5088053;28;20050;-72
2022/07/22 10:44:05;;;;;;;6.75;2.70;;;;;;;22.06;58.90;102017.56;5085497;28;20020;-72
2022/07/22 10:46:50;;;;;;;7.10;2.60;;;;;;;21.93;62.19;102017.38;5089331;28;20024;-76
2022/07/22 10:49:18;;;;;;;7.82;3.30;;;;;;;21.67;62.24;102002.78;5089432;28;20038;-75
2022/07/22 10:52:16;;;;;;;6.15;2.92;;;;;;;21.97;62.10;102009.19;5094261;28;20028;-75
2022/07/22 10:55:15;;;;;;;3.53;2.85;;;;;;;22.56;63.59;102000.72;5090274;28;20043;-76
2022/07/22 10:57:41;;;;;;;4.70;3.13;;;;;;;22.87;55.25;101998.06;5092723;28;20035;-75
2022/07/22 11:00:06;;;;;;;4.72;3.13;;;;;;;23.12;57.29;101997.53;5094206;28;20024;-75
2022/07/22 11:02:35;;;;;;;3.70;3.15;;;;;;;23.39;56.34;101991.53;5095390;28;20047;-75
2022/07/22 11:05:01;;;;;;;6.28;3.33;;;;;;;23.63;54.95;101991.03;5093431;28;20032;-75
2022/07/22 11:07:28;;;;;;;7.57;3.50;;;;;;;23.39;52.16;101988.03;5094692;28;20028;-75
2022/07/22 11:09:53;;;;;;;5.50;3.25;;;;;;;23.19;56.50;101994.53;5094433;28;20021;-74
2022/07/22 11:12:19;;;;;;;7.40;3.15;;;;;;;22.98;54.50;101997.47;5094419;28;20024;-74